Time;durP1;ratioP1;P1;durP2;ratioP2;P2;SDS_P1;SDS_P2;PMS_P1;PMS_P2;Temp;Humidity;BMP_temperature;BMP_pressure;BME280_temperature;BME280_humidity;BME280_pressure;Samples;Min_cycle;Max_cycle;Signal;HPM_P1;HPM_P2
2020/12/17 00:01:31;;;;;;;18.25;7.32;;;5.70;91.60;;;;;;4997914;28;20134;-85
2020/12/17 00:03:58;;;;;;;14.05;6.90;;;5.70;91.50;;;;;;5032126;28;20050;-85
2020/12/17 00:06:26;;;;;;;14.55;7.75;;;5.70;91.20;;;;;;5014425;28;20049;-84
2020/12/17 00:08:52;;;;;;;16.05;7.32;;;5.80;91.10;;;;;;4999302;28;20049;-86
2020/12/17 00:11:19;;;;;;;16.98;6.95;;;5.80;90.90;;;;;;5029836;28;20081;-86
2020/12/17 00:13:47;;;;;;;16.05;6.72;;;5.80;90.90;;;;;;5011230;28;20053;-82
2020/12/17 00:16:14;;;;;;;13.15;6.85;;;5.80;90.60;;;;;;5016042;28;20045;-82
2020/12/17 00:21:30;;;;;;;13.65;6.82;;;5.90;90.50;;;;;;5036519;28;20077;-84
2020/12/17 00:23:57;;;;;;;12.32;5.97;;;5.90;90.50;;;;;;5016271;28;20099;-84
2020/12/17 00:26:25;;;;;;;11.70;6.75;;;5.90;90.30;;;;;;5018404;28;20041;-83
2020/12/17 00:28:54;;;;;;;14.90;8.52;;;6.00;90.30;;;;;;5017459;28;20065;-86
2020/12/17 00:31:26;;;;;;;17.30;7.68;;;6.00;90.20;;;;;;5005992;28;20053;-86
2020/12/17 00:33:54;;;;;;;16.02;7.93;;;6.00;89.90;;;;;;5020834;28;20041;-84
2020/12/17 00:36:23;;;;;;;14.90;6.78;;;6.00;89.80;;;;;;5005693;28;20049;-85
2020/12/17 00:38:50;;;;;;;16.08;7.20;;;6.00;89.70;;;;;;5016629;28;20057;-83
2020/12/17 00:41:18;;;;;;;16.40;8.35;;;6.00;89.80;;;;;;5035759;28;20060;-83
2020/12/17 00:43:46;;;;;;;14.75;6.78;;;6.00;89.80;;;;;;5006122;28;20111;-83
2020/12/17 00:46:15;;;;;;;15.23;7.88;;;5.90;90.00;;;;;;5020156;28;20234;-84
2020/12/17 00:48:42;;;;;;;16.50;7.38;;;5.90;89.90;;;;;;5003541;28;20081;-81
2020/12/17 00:51:18;;;;;;;15.65;7.70;;;5.80;90.10;;;;;;4999170;28;20054;-84
2020/12/17 00:53:45;;;;;;;16.35;7.53;;;5.80;90.30;;;;;;5017754;28;20046;-85
2020/12/17 00:56:12;;;;;;;15.77;6.60;;;5.70;90.30;;;;;;5020623;28;20049;-84
2020/12/17 00:58:39;;;;;;;16.10;6.75;;;5.70;90.30;;;;;;5014646;28;20340;-84
2020/12/17 01:01:07;;;;;;;18.38;7.80;;;5.70;90.40;;;;;;4998542;28;20029;-85
2020/12/17 01:03:35;;;;;;;17.33;7.55;;;5.70;90.20;;;;;;5030486;28;20045;-82
2020/12/17 01:06:06;;;;;;;15.10;8.52;;;5.80;90.10;;;;;;5019055;28;20053;-86
2020/12/17 01:08:34;;;;;;;16.90;7.85;;;5.80;90.10;;;;;;5030792;28;20087;-83
2020/12/17 01:11:03;;;;;;;14.10;7.05;;;5.80;89.90;;;;;;5005600;28;20053;-83
2020/12/17 01:13:30;;;;;;;15.40;7.35;;;5.80;89.90;;;;;;5016022;28;20072;-85
2020/12/17 01:15:57;;;;;;;15.13;6.75;;;5.80;90.00;;;;;;5035750;28;20072;-84
2020/12/17 01:18:23;;;;;;;18.77;7.70;;;5.80;89.70;;;;;;5022970;28;20131;-85
2020/12/17 01:20:51;;;;;;;14.15;5.95;;;5.70;89.70;;;;;;5022103;28;20072;-85
2020/12/17 01:23:18;;;;;;;21.35;8.25;;;5.70;90.10;;;;;;5012684;28;20057;-83
2020/12/17 01:25:46;;;;;;;14.55;7.45;;;5.70;89.90;;;;;;5031976;28;20216;-82
2020/12/17 01:28:13;;;;;;;16.10;6.82;;;5.70;89.90;;;;;;5016558;28;20087;-84
2020/12/17 01:30:44;;;;;;;14.30;7.10;;;5.60;89.70;;;;;;4999836;28;20302;-84
2020/12/17 01:33:11;;;;;;;14.90;6.75;;;5.60;90.00;;;;;;5014386;28;20053;-82
2020/12/17 01:35:39;;;;;;;15.05;7.38;;;5.60;90.00;;;;;;5004838;28;20328;-84
2020/12/17 01:38:07;;;;;;;13.95;6.88;;;5.50;90.10;;;;;;5032493;28;20060;-84
2020/12/17 01:40:33;;;;;;;18.23;6.82;;;5.50;90.00;;;;;;5031440;28;20083;-83
2020/12/17 01:43:01;;;;;;;13.55;6.65;;;5.40;90.20;;;;;;5017048;28;20140;-86
2020/12/17 01:45:29;;;;;;;14.23;6.63;;;5.40;90.30;;;;;;5020763;28;20042;-82
2020/12/17 01:47:58;;;;;;;12.75;5.97;;;5.40;90.30;;;;;;5019664;28;20060;-84
2020/12/17 01:50:25;;;;;;;13.70;6.32;;;5.40;90.30;;;;;;5037467;28;20407;-84
2020/12/17 01:52:57;;;;;;;14.60;7.80;;;5.40;90.40;;;;;;5022209;28;20057;-85
2020/12/17 01:55:26;;;;;;;10.98;5.90;;;5.40;90.50;;;;;;5038062;28;20041;-84
2020/12/17 01:57:57;;;;;;;12.73;6.18;;;5.30;90.50;;;;;;5018383;28;20041;-85
2020/12/17 02:00:32;;;;;;;14.48;6.03;;;5.20;90.70;;;;;;5039109;28;20058;-87
2020/12/17 02:02:59;;;;;;;14.60;6.55;;;5.20;90.70;;;;;;5015940;28;20056;-86
2020/12/17 02:05:26;;;;;;;13.38;6.47;;;5.20;91.00;;;;;;5003336;28;20052;-84
2020/12/17 02:07:53;;;;;;;13.95;5.30;;;5.10;91.00;;;;;;5014845;28;20061;-84
2020/12/17 02:10:20;;;;;;;13.98;6.15;;;5.10;91.10;;;;;;5002149;28;20646;-87
2020/12/17 02:12:49;;;;;;;13.27;5.72;;;5.00;91.20;;;;;;5013202;28;20070;-85
2020/12/17 02:15:19;;;;;;;11.57;6.05;;;4.90;91.40;;;;;;5014087;28;20045;-84
2020/12/17 02:17:46;;;;;;;14.13;6.20;;;4.80;91.50;;;;;;5009936;28;20049;-83
2020/12/17 02:20:13;;;;;;;17.55;6.55;;;4.80;91.40;;;;;;5014958;28;20342;-84
2020/12/17 02:22:41;;;;;;;12.40;6.65;;;4.70;91.60;;;;;;4998631;28;20042;-82
2020/12/17 02:25:11;;;;;;;13.00;5.32;;;4.60;91.70;;;;;;5016374;28;20037;-82
2020/12/17 02:27:40;;;;;;;12.13;5.77;;;4.60;91.90;;;;;;5020727;28;20054;-84
2020/12/17 02:30:08;;;;;;;12.88;5.90;;;4.40;92.10;;;;;;5000882;28;20045;-82
2020/12/17 02:32:35;;;;;;;11.52;5.55;;;4.40;92.30;;;;;;5015881;28;20079;-83
2020/12/17 02:35:03;;;;;;;11.40;5.88;;;4.30;92.40;;;;;;5012210;28;20053;-85
2020/12/17 02:37:30;;;;;;;12.32;5.30;;;4.30;92.50;;;;;;5008978;28;20096;-83
2020/12/17 02:39:57;;;;;;;10.90;5.55;;;4.20;92.60;;;;;;4996886;28;20305;-85
2020/12/17 02:42:26;;;;;;;10.13;5.47;;;4.20;92.70;;;;;;5010336;28;20096;-84
2020/12/17 02:44:54;;;;;;;11.32;5.38;;;4.20;92.60;;;;;;4999588;28;20053;-84
2020/12/17 02:47:21;;;;;;;13.25;6.10;;;4.20;92.70;;;;;;5016637;28;20045;-85
2020/12/17 02:49:48;;;;;;;13.88;5.82;;;4.20;92.80;;;;;;5032591;28;20084;-82
2020/12/17 02:52:15;;;;;;;12.80;5.55;;;4.20;92.80;;;;;;5014409;28;20070;-82
2020/12/17 02:54:45;;;;;;;10.02;5.05;;;4.20;92.90;;;;;;5014858;28;20061;-82
2020/12/17 02:57:12;;;;;;;11.40;5.90;;;4.10;92.90;;;;;;5014090;28;20061;-83
2020/12/17 02:59:40;;;;;;;11.55;5.82;;;4.10;93.00;;;;;;5015601;28;20075;-85
2020/12/17 03:02:08;;;;;;;10.95;4.93;;;4.10;93.10;;;;;;5013040;28;20054;-82
2020/12/17 03:04:36;;;;;;;12.20;5.70;;;4.00;93.20;;;;;;5011173;28;20046;-84
2020/12/17 03:07:03;;;;;;;13.02;5.85;;;4.00;93.30;;;;;;5010671;28;20054;-84
2020/12/17 03:09:30;;;;;;;12.85;5.90;;;3.90;93.40;;;;;;5013693;28;20053;-83
2020/12/17 03:11:57;;;;;;;12.40;5.90;;;4.00;93.60;;;;;;5030152;28;20049;-83
2020/12/17 03:14:24;;;;;;;13.20;4.85;;;4.00;93.60;;;;;;5014312;28;20045;-84
2020/12/17 03:16:54;;;;;;;10.00;5.13;;;3.90;93.50;;;;;;5017814;28;20061;-84
2020/12/17 03:19:23;;;;;;;11.32;5.20;;;3.90;93.60;;;;;;5025108;28;20045;-83
2020/12/17 03:21:51;;;;;;;11.05;5.35;;;3.90;93.80;;;;;;5028382;28;20057;-83
2020/12/17 03:24:19;;;;;;;11.35;5.82;;;3.90;93.80;;;;;;5041433;28;20112;-82
2020/12/17 03:26:45;;;;;;;8.90;4.55;;;3.90;93.80;;;;;;5022087;28;20065;-82
2020/12/17 03:29:13;;;;;;;13.50;5.78;;;3.90;93.90;;;;;;5025500;28;20054;-84
2020/12/17 03:31:40;;;;;;;10.68;5.40;;;3.90;93.90;;;;;;5025033;28;20045;-83
2020/12/17 03:34:08;;;;;;;12.57;6.00;;;3.90;93.90;;;;;;5023478;28;20053;-85
2020/12/17 03:36:36;;;;;;;14.18;6.32;;;3.90;93.90;;;;;;5018141;28;20087;-87
2020/12/17 03:39:04;;;;;;;11.73;5.35;;;3.90;94.10;;;;;;5021183;28;20053;-83
2020/12/17 03:41:31;;;;;;;14.15;6.00;;;3.90;94.20;;;;;;5030230;28;20049;-85
2020/12/17 03:43:59;;;;;;;11.75;5.88;;;3.90;94.10;;;;;;4999737;28;20268;-83
2020/12/17 03:46:29;;;;;;;11.68;5.75;;;3.90;94.00;;;;;;5035620;28;20041;-81
2020/12/17 03:48:58;;;;;;;16.58;5.63;;;3.90;94.30;;;;;;5029686;28;20061;-81
2020/12/17 03:51:26;;;;;;;13.55;6.20;;;3.90;94.00;;;;;;5000486;28;20120;-81
2020/12/17 03:53:53;;;;;;;13.68;6.18;;;4.00;94.20;;;;;;5030109;28;20057;-83
2020/12/17 03:56:21;;;;;;;12.18;5.70;;;4.10;94.00;;;;;;5038755;28;20056;-84
2020/12/17 03:58:48;;;;;;;13.57;5.93;;;4.10;93.80;;;;;;5038984;28;20069;-81
2020/12/17 04:01:16;;;;;;;10.13;3.92;;;4.10;93.70;;;;;;5035733;28;20046;-81
2020/12/17 04:03:43;;;;;;;11.52;5.38;;;4.10;94.00;;;;;;5014139;28;20065;-81
2020/12/17 04:06:13;;;;;;;11.95;5.65;;;4.10;93.90;;;;;;5003841;28;20398;-85
2020/12/17 04:08:42;;;;;;;11.15;5.38;;;4.10;94.10;;;;;;5002769;28;20067;-83
2020/12/17 04:11:12;;;;;;;10.90;5.22;;;4.00;94.10;;;;;;5004426;28;20060;-83
2020/12/17 04:13:40;;;;;;;10.15;5.55;;;4.00;94.10;;;;;;5006653;28;20057;-83
2020/12/17 04:16:07;;;;;;;12.60;5.72;;;4.10;94.30;;;;;;5037909;28;20370;-84
2020/12/17 04:18:54;;;;;;;11.63;5.45;;;4.10;94.20;;;;;;5021976;28;20291;-84
2020/12/17 04:21:22;;;;;;;14.35;4.88;;;4.10;94.30;;;;;;5002968;28;20307;-83
2020/12/17 04:23:50;;;;;;;16.27;6.30;;;4.10;94.30;;;;;;5033417;28;20210;-82
2020/12/17 04:26:17;;;;;;;14.77;5.53;;;4.20;94.20;;;;;;5017278;28;20041;-81
2020/12/17 04:28:44;;;;;;;9.95;3.67;;;4.10;94.10;;;;;;5025415;28;20065;-83
2020/12/17 04:31:12;;;;;;;12.93;5.47;;;4.20;94.10;;;;;;5004689;28;20054;-82
2020/12/17 04:33:39;;;;;;;16.73;5.70;;;4.10;94.20;;;;;;5036785;28;20333;-82
2020/12/17 04:36:06;;;;;;;12.70;4.82;;;4.10;94.30;;;;;;5017999;28;20124;-81
2020/12/17 04:38:33;;;;;;;14.55;5.90;;;4.10;94.40;;;;;;5019283;28;20427;-82
2020/12/17 04:41:05;;;;;;;12.10;4.65;;;4.10;94.30;;;;;;5023559;28;20054;-84
2020/12/17 04:43:32;;;;;;;13.10;5.70;;;4.10;94.40;;;;;;5026874;28;20048;-84
2020/12/17 04:46:06;;;;;;;11.38;4.50;;;4.10;94.50;;;;;;5027696;28;20049;-82
2020/12/17 04:48:34;;;;;;;12.00;5.53;;;4.10;94.60;;;;;;5008758;28;20046;-83
2020/12/17 04:51:02;;;;;;;14.23;4.97;;;4.20;94.60;;;;;;5001808;28;20054;-84
2020/12/17 04:53:32;;;;;;;11.93;5.13;;;4.20;94.70;;;;;;5004626;28;20053;-82
2020/12/17 04:56:00;;;;;;;13.10;5.85;;;4.20;94.60;;;;;;5018794;28;20045;-84
2020/12/17 04:58:32;;;;;;;14.88;5.95;;;4.20;94.70;;;;;;5018269;28;20057;-83
2020/12/17 05:01:01;;;;;;;17.77;7.68;;;4.20;94.60;;;;;;5026825;28;20056;-82
2020/12/17 05:03:31;;;;;;;15.05;5.68;;;4.20;94.70;;;;;;5036201;28;20049;-83
2020/12/17 05:06:06;;;;;;;13.02;5.78;;;4.20;94.70;;;;;;5025755;28;20115;-82
2020/12/17 05:08:34;;;;;;;12.30;5.50;;;4.20;94.80;;;;;;5022956;28;20049;-83
2020/12/17 05:11:03;;;;;;;12.02;5.65;;;4.20;94.80;;;;;;5011664;28;20087;-82
2020/12/17 05:13:32;;;;;;;16.48;6.50;;;4.20;94.90;;;;;;5009960;28;20069;-83
2020/12/17 05:15:59;;;;;;;16.02;6.88;;;4.30;94.80;;;;;;5022215;28;20260;-84
2020/12/17 05:18:26;;;;;;;16.63;5.47;;;4.20;94.80;;;;;;5021852;28;20137;-83
2020/12/17 05:20:54;;;;;;;15.85;5.70;;;4.20;94.90;;;;;;5027971;28;20053;-82
2020/12/17 05:23:24;;;;;;;14.50;6.05;;;4.20;95.00;;;;;;5025511;28;20072;-84
2020/12/17 05:25:52;;;;;;;17.95;7.20;;;4.20;94.90;;;;;;5015833;28;20237;-81
2020/12/17 05:28:19;;;;;;;15.23;6.90;;;4.20;94.90;;;;;;5037919;28;20046;-82
2020/12/17 05:30:47;;;;;;;14.48;5.45;;;4.20;94.80;;;;;;5006019;28;20046;-84
2020/12/17 05:33:14;;;;;;;15.77;5.72;;;4.20;94.90;;;;;;5020046;28;20049;-84
2020/12/17 05:35:42;;;;;;;14.63;6.43;;;4.30;94.90;;;;;;5029574;28;20050;-83
2020/12/17 05:38:11;;;;;;;12.50;6.22;;;4.30;94.90;;;;;;5037398;28;20109;-81
2020/12/17 05:40:38;;;;;;;13.73;6.35;;;4.30;94.80;;;;;;5037717;28;20095;-84
2020/12/17 05:43:07;;;;;;;12.00;5.15;;;4.30;94.80;;;;;;5018540;28;21785;-83
2020/12/17 05:45:35;;;;;;;15.07;5.88;;;4.20;94.90;;;;;;5007982;28;20046;-83
2020/12/17 05:48:14;;;;;;;19.92;7.90;;;4.30;94.80;;;;;;5018911;28;20053;-82
2020/12/17 05:50:59;;;;;;;15.05;6.85;;;4.30;94.90;;;;;;5021592;28;20058;-81
2020/12/17 05:53:27;;;;;;;19.00;6.20;;;4.40;94.60;;;;;;5043040;28;20081;-83
2020/12/17 05:56:01;;;;;;;15.70;6.25;;;4.40;94.60;;;;;;5037057;28;20037;-83
2020/12/17 05:58:39;;;;;;;13.43;6.60;;;4.40;94.70;;;;;;5031562;28;20064;-83
2020/12/17 06:01:12;;;;;;;14.77;7.38;;;4.40;94.60;;;;;;5017948;28;20363;-84
2020/12/17 06:03:40;;;;;;;16.98;6.45;;;4.40;94.60;;;;;;5021966;28;20099;-81
2020/12/17 06:06:08;;;;;;;15.02;5.68;;;4.40;94.50;;;;;;5020831;28;20054;-82
2020/12/17 06:08:36;;;;;;;14.05;6.75;;;4.40;94.60;;;;;;5020991;28;20068;-83
2020/12/17 06:11:06;;;;;;;13.18;5.93;;;4.50;94.50;;;;;;5008306;28;20056;-83
2020/12/17 06:13:49;;;;;;;13.85;6.78;;;4.40;94.50;;;;;;5020299;28;20053;-82
2020/12/17 06:16:16;;;;;;;14.70;6.13;;;4.40;94.50;;;;;;5017677;28;20337;-83
2020/12/17 06:18:52;;;;;;;16.00;6.45;;;4.40;94.50;;;;;;5025926;28;20069;-83
2020/12/17 06:21:20;;;;;;;12.32;6.05;;;4.50;94.60;;;;;;5016928;28;20288;-83
2020/12/17 06:23:54;;;;;;;17.55;6.32;;;4.60;94.50;;;;;;5037621;28;20060;-83
2020/12/17 06:26:23;;;;;;;15.45;6.55;;;4.70;94.30;;;;;;5003925;28;20049;-82
2020/12/17 06:28:50;;;;;;;15.93;6.60;;;4.80;94.00;;;;;;5034902;28;20053;-82
2020/12/17 06:31:18;;;;;;;17.27;6.53;;;4.80;93.80;;;;;;5035760;28;20053;-82
2020/12/17 06:33:47;;;;;;;13.88;4.88;;;4.90;93.60;;;;;;5021000;28;20045;-83
2020/12/17 06:36:25;;;;;;;13.82;6.18;;;4.90;93.50;;;;;;5016481;28;20033;-85
2020/12/17 06:38:52;;;;;;;19.63;7.43;;;5.00;93.40;;;;;;5002904;28;20056;-83
2020/12/17 06:41:23;;;;;;;19.48;6.20;;;4.90;93.40;;;;;;5020663;28;20037;-86
2020/12/17 06:43:50;;;;;;;15.82;6.68;;;4.90;93.30;;;;;;5015693;28;20062;-84
2020/12/17 06:46:36;;;;;;;16.25;6.40;;;4.90;93.40;;;;;;5033318;28;20053;-82
2020/12/17 06:49:07;;;;;;;17.75;6.95;;;4.90;93.30;;;;;;5020061;28;20057;-84
2020/12/17 06:51:37;;;;;;;23.45;7.95;;;5.00;93.40;;;;;;5037830;28;20065;-83
2020/12/17 06:54:07;;;;;;;11.93;5.25;;;5.00;93.40;;;;;;5030538;28;20060;-83
2020/12/17 06:56:37;;;;;;;14.52;7.00;;;5.00;93.30;;;;;;5020480;28;20539;-83
2020/12/17 06:59:16;;;;;;;16.08;7.50;;;5.10;93.10;;;;;;5021769;28;20096;-81
2020/12/17 07:01:43;;;;;;;15.70;6.78;;;5.20;93.00;;;;;;5036450;28;20053;-81
2020/12/17 07:04:12;;;;;;;18.02;6.80;;;5.20;92.90;;;;;;5037609;28;20076;-83
2020/12/17 07:06:39;;;;;;;15.07;6.93;;;5.20;92.80;;;;;;5017674;28;20049;-81
2020/12/17 07:09:07;;;;;;;16.77;7.97;;;5.30;92.70;;;;;;5036883;28;20072;-83
2020/12/17 07:11:42;;;;;;;16.17;6.70;;;5.30;92.40;;;;;;5032389;28;20049;-82
2020/12/17 07:14:11;;;;;;;16.02;6.65;;;5.40;92.20;;;;;;5010525;28;20045;-83
2020/12/17 07:16:38;;;;;;;18.85;7.68;;;5.40;92.30;;;;;;5029124;28;20053;-83
2020/12/17 07:19:21;;;;;;;23.00;7.38;;;5.40;92.30;;;;;;5020346;28;20041;-83
2020/12/17 07:22:11;;;;;;;17.83;7.32;;;5.30;92.20;;;;;;5041836;28;20240;-83
2020/12/17 07:24:43;;;;;;;20.65;6.38;;;5.20;92.50;;;;;;5032862;28;20042;-83
2020/12/17 07:27:11;;;;;;;;;;;5.20;92.50;;;;;;5032551;28;20053;-83
2020/12/17 07:29:43;;;;;;;14.05;5.95;;;5.30;92.60;;;;;;5003722;28;19926;-82
2020/12/17 07:32:35;;;;;;;21.00;8.70;;;5.30;92.50;;;;;;5018371;28;20053;-83
2020/12/17 07:35:23;;;;;;;20.10;6.88;;;5.40;92.40;;;;;;5035564;28;20252;-82
2020/12/17 07:37:53;;;;;;;17.52;7.70;;;5.40;92.30;;;;;;5031543;28;20112;-84
2020/12/17 07:40:29;;;;;;;17.40;7.57;;;5.40;92.20;;;;;;5035529;28;20037;-81
2020/12/17 07:43:01;;;;;;;19.38;7.25;;;5.40;92.10;;;;;;5010897;28;20053;-83
2020/12/17 07:45:47;;;;;;;24.88;8.32;;;5.40;92.10;;;;;;5032438;28;20073;-82
2020/12/17 07:48:40;;;;;;;15.38;8.35;;;5.40;92.20;;;;;;5005080;28;20048;-85
2020/12/17 07:51:26;;;;;;;19.50;7.45;;;5.30;92.20;;;;;;5021496;28;20104;-83
2020/12/17 07:53:53;;;;;;;19.85;8.07;;;5.30;92.30;;;;;;5035834;28;20295;-82
2020/12/17 07:56:21;;;;;;;19.42;7.90;;;5.40;92.10;;;;;;5017851;28;20057;-81
2020/12/17 07:58:49;;;;;;;19.67;8.55;;;5.40;92.10;;;;;;5030459;28;20061;-83
2020/12/17 08:01:17;;;;;;;18.33;8.25;;;5.40;92.00;;;;;;5030388;28;20050;-83
2020/12/17 08:03:45;;;;;;;18.27;7.65;;;5.50;91.80;;;;;;5015367;28;20046;-83
2020/12/17 08:06:18;;;;;;;16.35;6.13;;;5.60;91.50;;;;;;5036297;28;20037;-80
2020/12/17 08:08:46;;;;;;;19.25;7.28;;;5.70;91.40;;;;;;5010356;28;20064;-82
2020/12/17 08:11:13;;;;;;;19.92;8.73;;;5.80;90.90;;;;;;5014972;28;20058;-81
2020/12/17 08:13:40;;;;;;;17.75;7.22;;;5.90;90.80;;;;;;5005153;28;20069;-83
2020/12/17 08:16:08;;;;;;;15.90;6.20;;;6.00;90.40;;;;;;5006466;28;20058;-81
2020/12/17 08:18:37;;;;;;;16.70;7.95;;;6.10;89.90;;;;;;5013229;28;20063;-82
2020/12/17 08:21:07;;;;;;;17.40;7.10;;;6.20;89.70;;;;;;5017753;28;20046;-82
2020/12/17 08:23:36;;;;;;;17.58;7.38;;;6.40;89.20;;;;;;5011512;28;20324;-84
2020/12/17 08:26:05;;;;;;;19.73;8.00;;;6.50;88.70;;;;;;5016232;28;20054;-81
2020/12/17 08:28:54;;;;;;;17.67;7.07;;;6.60;88.50;;;;;;5019639;28;20103;-84
2020/12/17 08:31:22;;;;;;;16.90;6.88;;;6.60;88.00;;;;;;4996303;28;20046;-83
2020/12/17 08:33:52;;;;;;;15.95;6.78;;;6.70;87.90;;;;;;4996964;28;20073;-84
2020/12/17 08:36:23;;;;;;;19.33;9.10;;;6.80;87.60;;;;;;5014446;28;20057;-83
2020/12/17 08:38:59;;;;;;;21.85;9.43;;;6.70;87.60;;;;;;5008630;28;20045;-81
2020/12/17 08:41:30;;;;;;;18.63;8.63;;;6.70;87.70;;;;;;5013420;28;20046;-82
2020/12/17 08:44:04;;;;;;;16.70;7.50;;;6.80;87.40;;;;;;4999477;28;20084;-83
2020/12/17 08:46:36;;;;;;;17.42;7.82;;;6.80;87.50;;;;;;5020216;28;20057;-82
2020/12/17 08:49:06;;;;;;;17.98;7.57;;;6.80;87.40;;;;;;5014868;28;20054;-82
2020/12/17 08:51:36;;;;;;;18.52;8.18;;;6.70;87.40;;;;;;5010240;28;20136;-85
2020/12/17 08:54:05;;;;;;;17.58;7.50;;;6.70;87.60;;;;;;5018885;28;20054;-83
2020/12/17 08:56:33;;;;;;;19.15;7.45;;;6.80;87.60;;;;;;5019946;28;20053;-82
2020/12/17 08:59:02;;;;;;;18.83;6.85;;;6.70;87.50;;;;;;5017019;28;20054;-82
2020/12/17 09:01:32;;;;;;;20.95;8.80;;;6.70;87.50;;;;;;5018940;28;20068;-81
2020/12/17 09:51:38;;;;;;;13.50;7.05;;;7.40;85.30;;;;;;4989053;28;20066;-89
2020/12/17 09:54:16;;;;;;;15.90;6.95;;;7.30;85.70;;;;;;5026324;28;20046;-89
2020/12/17 09:57:05;;;;;;;19.90;8.27;;;7.30;85.80;;;;;;5020973;28;20051;-89
2020/12/17 09:59:40;;;;;;;19.17;9.55;;;7.20;85.80;;;;;;4998196;28;20057;-90
2020/12/17 10:02:09;;;;;;;13.68;6.70;;;7.20;86.00;;;;;;4976642;28;20049;-88
2020/12/17 10:04:44;;;;;;;14.85;7.43;;;7.20;85.90;;;;;;5002313;28;20054;-91
2020/12/17 10:07:20;;;;;;;15.15;6.97;;;7.30;86.10;;;;;;4978996;28;20048;-89
2020/12/17 10:09:51;;;;;;;14.02;6.60;;;7.30;86.30;;;;;;4989507;28;20168;-88
2020/12/17 10:13:01;;;;;;;15.80;7.32;;;7.30;86.50;;;;;;5007867;28;20077;-90
2020/12/17 10:15:33;;;;;;;14.23;7.82;;;7.40;86.80;;;;;;5011795;28;20070;-89
2020/12/17 10:25:40;;;;;;;9.32;4.20;;;7.60;86.50;;;;;;4989669;28;20062;-88
2020/12/17 10:31:58;;;;;;;12.77;5.97;;;7.60;86.90;;;;;;5010638;28;20115;-90
2020/12/17 10:34:44;;;;;;;11.75;5.20;;;7.60;87.10;;;;;;5011347;28;20046;-88
2020/12/17 10:37:29;;;;;;;13.48;5.82;;;7.60;86.60;;;;;;5006454;28;20046;-88
2020/12/17 10:40:07;;;;;;;13.02;6.65;;;7.60;86.70;;;;;;5008330;28;20061;-89
2020/12/17 10:42:56;;;;;;;12.02;5.32;;;7.50;86.80;;;;;;5001260;28;20042;-88
2020/12/17 10:45:39;;;;;;;15.95;6.50;;;7.40;87.00;;;;;;5009004;28;20073;-90
2020/12/17 10:48:29;;;;;;;16.17;6.93;;;7.40;87.60;;;;;;4996292;28;20423;-87
2020/12/17 10:51:22;;;;;;;11.77;5.93;;;7.40;87.40;;;;;;4993445;28;20058;-88
2020/12/17 11:07:06;;;;;;;12.48;6.30;;;7.30;90.10;;;;;;5011842;28;20030;-90
2020/12/17 11:17:08;;;;;;;16.17;6.07;;;7.20;91.00;;;;;;5012649;28;20383;-90
2020/12/17 11:27:35;;;;;;;12.70;5.97;;;7.00;91.60;;;;;;4935481;28;20056;-89
2020/12/17 11:49:41;;;;;;;16.15;5.80;;;7.20;91.40;;;;;;4927526;28;20066;-88
2020/12/17 11:52:10;;;;;;;10.00;4.90;;;7.20;91.70;;;;;;4967124;28;20043;-90
2020/12/17 11:58:52;;;;;;;13.77;5.27;;;7.30;91.70;;;;;;4972798;28;20043;-90
2020/12/17 12:15:42;;;;;;;10.68;4.97;;;7.70;91.00;;;;;;5010758;28;20113;-90
2020/12/17 12:31:48;;;;;;;9.57;4.72;;;7.70;91.70;;;;;;4820480;29;20085;-89
2020/12/17 12:38:35;;;;;;;8.45;4.40;;;7.80;91.70;;;;;;4734010;30;20084;-85
2020/12/17 12:41:14;;;;;;;11.27;5.70;;;7.90;91.70;;;;;;4735103;30;20049;-87
2020/12/17 12:43:55;;;;;;;10.13;4.95;;;7.90;92.00;;;;;;4810196;29;20063;-88
2020/12/17 12:46:22;;;;;;;13.65;5.78;;;8.00;91.90;;;;;;4822561;29;20096;-84
2020/12/17 12:49:06;;;;;;;11.73;6.10;;;8.00;91.50;;;;;;4924109;29;20413;-88
2020/12/17 12:51:53;;;;;;;11.23;6.03;;;8.00;91.50;;;;;;4952434;29;20051;-89
2020/12/17 12:54:39;;;;;;;14.27;5.88;;;8.00;91.70;;;;;;4956746;29;20136;-90
2020/12/17 12:57:18;;;;;;;15.32;5.68;;;8.00;91.70;;;;;;4922966;29;20515;-89
2020/12/17 13:00:11;;;;;;;11.95;5.68;;;8.10;91.70;;;;;;4956019;29;20035;-89
2020/12/17 14:17:52;;;;;;;9.35;4.50;;;9.00;89.70;;;;;;5986005;23;20033;-91
2020/12/17 14:20:31;;;;;;;8.73;4.47;;;8.70;90.30;;;;;;4951743;29;20063;-90
2020/12/17 14:24:10;;;;;;;9.02;4.38;;;8.70;90.50;;;;;;4907335;29;20047;-89
2020/12/17 14:30:48;;;;;;;10.48;4.60;;;8.40;91.30;;;;;;4941272;29;20040;-92
2020/12/17 14:33:54;;;;;;;10.27;5.38;;;8.30;91.80;;;;;;4925701;29;20044;-89
2020/12/17 14:39:57;;;;;;;11.63;4.87;;;8.10;92.40;;;;;;4936932;29;20047;-89
2020/12/17 14:43:29;;;;;;;11.55;5.35;;;8.00;92.80;;;;;;4935833;29;20494;-89
2020/12/17 16:41:09;;;;;;;13.43;5.72;;;5.40;96.60;;;;;;4919540;29;20028;-90
2020/12/17 16:48:25;;;;;;;15.38;7.20;;;5.20;96.60;;;;;;4915544;29;20060;-89
2020/12/17 18:09:53;;;;;;;15.02;5.90;;;4.20;96.90;;;;;;4855453;29;20110;-90
2020/12/17 18:14:06;;;;;;;11.48;6.00;;;4.10;97.00;;;;;;4861025;29;20064;-88
2020/12/17 18:36:31;;;;;;;15.02;7.38;;;3.90;96.60;;;;;;4826091;29;20055;-88
2020/12/17 23:27:35;;;;;;;6.88;2.90;;;3.20;94.90;;;;;;4897514;29;20037;-88
2020/12/17 23:30:39;;;;;;;5.57;2.50;;;3.30;95.00;;;;;;4899133;29;20082;-90
2020/12/17 23:33:48;;;;;;;7.05;2.78;;;3.30;95.50;;;;;;4897428;29;20049;-89
2020/12/17 23:37:04;;;;;;;9.65;4.03;;;3.40;95.20;;;;;;4882826;29;20033;-91
2020/12/17 23:52:31;;;;;;;7.43;3.00;;;3.20;94.80;;;;;;5189637;23;20068;-92
2020/12/17 23:55:19;;;;;;;5.93;3.00;;;3.20;95.10;;;;;;4901146;29;20097;-90
2020/12/17 23:58:04;;;;;;;6.60;3.08;;;3.20;95.10;;;;;;4897450;29;20077;-91
